createdAt,value
2024-02-19T00:05:14.412Z,0.64
2024-02-19T00:10:54.578Z,0.84
2024-02-19T00:16:35.269Z,0.90
2024-02-19T00:22:15.191Z,0.57
2024-02-19T00:27:56.533Z,0.34
2024-02-19T00:33:36.891Z,2.32
2024-02-19T00:39:17.282Z,0.65
2024-02-19T00:44:57.462Z,0.59
2024-02-19T00:50:37.618Z,0.68
2024-02-19T00:56:17.828Z,1.34
2024-02-19T01:05:18.726Z,0.49
2024-02-19T01:10:58.994Z,0.80
2024-02-19T01:16:41.146Z,1.03
2024-02-19T01:22:21.239Z,0.89
2024-02-19T01:28:02.016Z,1.32
2024-02-19T01:33:42.045Z,0.52
2024-02-19T01:39:22.403Z,0.51
2024-02-19T01:45:04.108Z,0.84
2024-02-19T01:50:48.181Z,0.53
2024-02-19T01:56:28.632Z,0.57
2024-02-19T02:02:09.853Z,0.75
2024-02-19T02:07:50.073Z,0.68
2024-02-19T02:13:30.000Z,0.62
2024-02-19T02:19:14.232Z,1.77
2024-02-19T02:24:54.550Z,0.49
2024-02-19T02:30:34.729Z,0.49
2024-02-19T02:36:14.980Z,1.29
2024-02-19T02:41:54.943Z,1.53
2024-02-19T02:47:35.573Z,0.74
2024-02-19T02:53:15.883Z,0.77
2024-02-19T02:58:56.616Z,1.16
2024-02-19T03:04:37.192Z,0.62
2024-02-19T03:10:18.494Z,0.81
2024-02-19T03:15:59.054Z,1.49
2024-02-19T03:21:41.785Z,0.41
2024-02-19T03:27:23.211Z,0.65
2024-02-19T03:33:04.464Z,0.48
2024-02-19T03:38:44.952Z,0.76
2024-02-19T03:44:27.529Z,5.76
2024-02-19T03:50:08.082Z,27.81
2024-02-19T03:55:48.352Z,7.53
2024-02-19T04:05:22.488Z,3.10
2024-02-19T04:11:02.560Z,2.56
2024-02-19T04:16:43.418Z,3.59
2024-02-19T04:22:23.398Z,2.96
2024-02-19T04:28:03.736Z,1.13
2024-02-19T04:33:44.736Z,1.14
2024-02-19T04:39:24.633Z,1.01
2024-02-19T04:45:05.390Z,1.03
2024-02-19T04:50:45.130Z,3.82
2024-02-19T04:56:25.912Z,4.03
2024-02-19T05:02:06.320Z,2.56
2024-02-19T05:07:46.483Z,3.16
2024-02-19T05:13:26.284Z,6.07
2024-02-19T05:19:06.658Z,4.94
2024-02-19T05:24:47.842Z,4.77
2024-02-19T05:30:28.163Z,3.00
2024-02-19T05:36:11.302Z,1.94
2024-02-19T05:41:51.519Z,1.61
2024-02-19T05:47:31.193Z,4.89
2024-02-19T05:53:11.796Z,4.99
2024-02-19T05:58:51.365Z,8.23
2024-02-19T06:05:27.405Z,10.78
2024-02-19T06:11:08.069Z,11.03
2024-02-19T06:16:48.730Z,29.96
2024-02-19T06:22:29.034Z,107.81
2024-02-19T06:28:09.494Z,68.35
2024-02-19T06:33:49.950Z,79.60
2024-02-19T06:39:30.751Z,93.99
2024-02-19T06:45:11.286Z,62.75
2024-02-19T06:50:51.832Z,51.36
2024-02-19T06:56:32.137Z,33.04
2024-02-19T07:02:12.652Z,9.23
2024-02-19T07:07:54.283Z,25.83
2024-02-19T07:13:34.900Z,26.70
2024-02-19T07:19:15.485Z,6.68
2024-02-19T07:25:05.738Z,2.40
2024-02-19T07:30:39.618Z,29.55
2024-02-19T07:36:20.095Z,15.34
2024-02-19T07:42:00.871Z,7.11
2024-02-19T07:47:41.928Z,68.08
2024-02-19T07:53:23.588Z,55.51
2024-02-19T07:59:04.238Z,26.21
2024-02-19T08:04:44.718Z,11.23
2024-02-19T08:10:25.543Z,7.91
2024-02-19T08:16:06.622Z,4.28
2024-02-19T08:21:49.071Z,13.61
2024-02-19T08:27:29.286Z,3.55
2024-02-19T08:33:09.650Z,17.08
2024-02-19T08:38:53.117Z,2.82
2024-02-19T08:44:33.825Z,2.84
2024-02-19T08:50:14.535Z,23.40
2024-02-19T08:55:55.433Z,2.94
2024-02-19T09:01:36.138Z,25.53
2024-02-19T09:07:16.576Z,15.14
2024-02-19T09:12:57.568Z,4.72
2024-02-19T09:18:38.952Z,26.42
2024-02-19T09:24:20.438Z,60.36
2024-02-19T09:30:00.773Z,27.70
2024-02-19T09:35:40.893Z,11.99
2024-02-19T09:41:21.584Z,1.04
2024-02-19T09:47:05.108Z,7.83
2024-02-19T09:52:46.163Z,6.13
2024-02-19T09:58:27.850Z,23.22
2024-02-19T10:05:27.221Z,3.89
2024-02-19T10:11:11.507Z,1.09
2024-02-19T10:16:53.178Z,1.54
2024-02-19T10:22:33.884Z,8.74
2024-02-19T10:28:14.160Z,3.74
2024-02-19T10:33:55.043Z,1.58
2024-02-19T10:39:35.927Z,0.77
2024-02-19T10:45:18.438Z,5.94
2024-02-19T10:50:59.362Z,14.57
2024-02-19T10:56:43.821Z,1.32
2024-02-19T11:02:25.797Z,26.72
2024-02-19T11:13:48.914Z,3.43
2024-02-19T11:19:30.661Z,2.12
2024-02-19T11:25:11.543Z,26.37
2024-02-19T11:31:02.035Z,36.78
2024-02-19T11:36:43.510Z,44.21
2024-02-19T11:42:24.577Z,18.16
2024-02-19T11:48:06.257Z,21.45
2024-02-19T11:53:46.605Z,6.46
2024-02-19T11:59:27.494Z,3.44
2024-02-19T12:05:07.929Z,6.42
2024-02-19T12:10:47.995Z,1.83
2024-02-19T12:16:29.012Z,20.26
2024-02-19T12:22:09.429Z,29.82
2024-02-19T12:27:49.444Z,7.49
2024-02-19T12:33:29.560Z,3.84
2024-02-19T12:39:11.225Z,1.08
2024-02-19T12:44:52.260Z,64.41
2024-02-19T12:50:33.571Z,49.83
2024-02-19T12:56:14.133Z,39.89
2024-02-19T13:05:21.762Z,2.88
2024-02-19T13:11:02.399Z,1.78
2024-02-19T13:16:44.733Z,2.32
2024-02-19T13:22:26.710Z,2.16
2024-02-19T13:28:08.628Z,27.02
2024-02-19T13:33:48.491Z,37.98
2024-02-19T13:39:29.140Z,86.54
2024-02-19T13:45:10.673Z,11.76
2024-02-19T13:50:56.095Z,34.65
2024-02-19T13:56:37.127Z,4.69
2024-02-19T14:02:17.640Z,3.62
2024-02-19T14:07:57.995Z,1.31
2024-02-19T14:13:46.532Z,1.55
2024-02-19T14:19:20.414Z,0.81
2024-02-19T14:25:00.850Z,12.89
2024-02-19T14:30:41.349Z,1.47
2024-02-19T14:36:22.706Z,4.43
2024-02-19T14:42:02.808Z,1.93
2024-02-19T14:47:45.724Z,2.96
2024-02-19T14:59:06.226Z,6.78
2024-02-19T15:04:46.863Z,2.94
2024-02-19T15:10:27.311Z,1.38
2024-02-19T15:16:07.976Z,15.37
2024-02-19T15:21:48.146Z,9.19
2024-02-19T15:27:28.234Z,5.31
2024-02-19T15:33:08.489Z,4.54
2024-02-19T15:38:50.934Z,3.74
2024-02-19T15:44:31.986Z,4.03
2024-02-19T15:50:12.669Z,0.94
2024-02-19T15:55:56.483Z,1.69
2024-02-19T16:05:30.547Z,48.62
2024-02-19T16:11:11.407Z,13.30
2024-02-19T16:16:51.945Z,21.32
2024-02-19T16:22:32.971Z,11.56
2024-02-19T16:28:15.421Z,20.23
2024-02-19T16:33:55.677Z,28.69
2024-02-19T16:39:35.615Z,24.24
2024-02-19T16:45:15.897Z,18.01
2024-02-19T16:50:57.813Z,13.58
2024-02-19T16:56:37.868Z,20.82
2024-02-19T17:02:17.860Z,15.88
2024-02-19T17:07:57.654Z,11.86
2024-02-19T17:13:38.153Z,6.28
2024-02-19T17:19:19.912Z,3.38
2024-02-19T17:25:00.533Z,13.28
2024-02-19T17:30:42.708Z,10.28
2024-02-19T17:36:24.116Z,3.71
2024-02-19T17:42:04.712Z,6.63
2024-02-19T17:47:47.310Z,8.44
2024-02-19T17:59:12.539Z,19.28
2024-02-19T18:04:56.228Z,21.89
2024-02-19T18:10:36.292Z,39.22
2024-02-19T18:16:16.966Z,20.95
2024-02-19T18:21:58.885Z,16.56
2024-02-19T18:27:39.342Z,24.54
2024-02-19T18:33:21.251Z,13.64
2024-02-19T18:39:01.779Z,10.54
2024-02-19T18:44:42.298Z,13.65
2024-02-19T18:50:23.759Z,12.30
2024-02-19T18:56:04.389Z,8.34
2024-02-19T19:05:19.119Z,5.79
2024-02-19T19:10:59.512Z,8.34
2024-02-19T19:16:39.543Z,11.82
2024-02-19T19:22:20.576Z,10.08
2024-02-19T19:28:00.943Z,6.96
2024-02-19T19:33:41.144Z,6.61
2024-02-19T19:39:21.939Z,7.44
2024-02-19T19:45:02.563Z,7.53
2024-02-19T19:50:42.810Z,25.53
2024-02-19T19:56:24.390Z,12.77
2024-02-19T20:02:04.667Z,11.25
2024-02-19T20:07:45.001Z,11.13
2024-02-19T20:13:25.383Z,7.69
2024-02-19T20:19:05.875Z,9.06
2024-02-19T20:24:46.600Z,8.23
2024-02-19T20:30:26.939Z,18.77
2024-02-19T20:36:08.170Z,10.57
2024-02-19T20:41:50.414Z,10.68
2024-02-19T20:47:30.810Z,5.77
2024-02-19T20:53:12.990Z,6.16
2024-02-19T20:58:53.575Z,4.16
2024-02-19T21:04:35.348Z,5.41
2024-02-19T21:10:16.231Z,9.81
2024-02-19T21:15:57.575Z,6.07
2024-02-19T21:21:38.453Z,5.52
2024-02-19T21:27:18.534Z,5.19
2024-02-19T21:32:58.915Z,4.84
2024-02-19T21:38:20.968Z,3.71
2024-02-19T21:43:46.179Z,4.96
2024-02-19T21:49:28.490Z,2.42
2024-02-19T21:55:09.430Z,2.69
2024-02-19T22:05:19.413Z,4.38
2024-02-19T22:10:59.602Z,2.61
2024-02-19T22:16:40.319Z,9.49
2024-02-19T22:22:20.492Z,5.53
2024-02-19T22:27:45.344Z,5.35
2024-02-19T22:33:07.664Z,6.07
2024-02-19T22:38:29.671Z,20.63
2024-02-19T22:44:10.047Z,20.43
2024-02-19T22:49:50.423Z,6.56
2024-02-19T22:55:30.742Z,6.26
2024-02-19T23:01:12.111Z,7.70
2024-02-19T23:06:52.906Z,5.91
2024-02-19T23:12:14.847Z,3.94
2024-02-19T23:17:55.120Z,9.93
2024-02-19T23:23:17.044Z,5.19
2024-02-19T23:28:57.862Z,4.51
2024-02-19T23:34:37.977Z,11.66
2024-02-19T23:40:00.959Z,6.92
2024-02-19T23:45:41.436Z,10.28
2024-02-19T23:51:21.694Z,6.68
2024-02-19T23:57:01.909Z,8.97
